createdAt,value
2023-02-24T00:01:39.963Z,12.20
2023-02-24T00:04:12.824Z,12.20
2023-02-24T00:06:42.287Z,12.20
2023-02-24T00:09:19.320Z,12.20
2023-02-24T00:12:10.655Z,12.20
2023-02-24T00:14:40.287Z,12.20
2023-02-24T00:17:08.638Z,12.20
2023-02-24T00:19:36.424Z,12.20
2023-02-24T00:22:05.009Z,12.20
2023-02-24T00:24:33.600Z,12.20
2023-02-24T00:27:07.432Z,12.20
2023-02-24T00:29:34.333Z,12.20
2023-02-24T00:32:02.403Z,12.20
2023-02-24T00:34:30.983Z,12.20
2023-02-24T00:36:58.674Z,12.20
2023-02-24T00:39:33.121Z,12.20
2023-02-24T00:42:07.132Z,12.20
2023-02-24T00:44:44.527Z,12.20
2023-02-24T00:47:12.175Z,12.20
2023-02-24T00:49:43.347Z,12.20
2023-02-24T00:52:13.876Z,12.20
2023-02-24T00:54:44.437Z,12.20
2023-02-24T00:57:12.118Z,12.20
2023-02-24T00:59:39.591Z,12.20
2023-02-24T01:02:07.347Z,12.20
2023-02-24T01:04:34.574Z,12.20
2023-02-24T01:07:01.812Z,12.20
2023-02-24T01:09:30.952Z,12.20
2023-02-24T01:12:16.996Z,12.20
2023-02-24T01:14:47.709Z,12.20
2023-02-24T01:17:16.101Z,12.20
2023-02-24T01:19:44.356Z,12.20
2023-02-24T01:22:15.129Z,12.10
2023-02-24T01:24:43.698Z,12.10
2023-02-24T01:27:17.676Z,12.10
2023-02-24T01:29:45.316Z,12.10
2023-02-24T01:32:21.573Z,12.10
2023-02-24T01:34:52.134Z,12.10
2023-02-24T01:37:20.064Z,12.10
2023-02-24T01:39:47.889Z,12.10
2023-02-24T01:42:19.696Z,12.10
2023-02-24T01:44:46.574Z,12.10
2023-02-24T01:47:14.925Z,12.10
2023-02-24T01:49:45.964Z,12.00
2023-02-24T01:52:24.742Z,12.00
2023-02-24T01:54:55.268Z,12.00
2023-02-24T01:57:26.185Z,12.00
2023-02-24T02:00:02.089Z,12.10
2023-02-24T02:02:29.574Z,12.00
2023-02-24T02:05:06.131Z,12.00
2023-02-24T02:07:33.220Z,12.00
2023-02-24T02:10:03.999Z,12.00
2023-02-24T02:12:37.068Z,12.00
2023-02-24T02:15:05.626Z,12.00
2023-02-24T02:17:42.103Z,12.00
2023-02-24T02:20:31.230Z,12.00
2023-02-24T02:23:19.715Z,12.00
2023-02-24T02:25:58.497Z,12.00
2023-02-24T02:28:54.035Z,11.90
2023-02-24T02:31:33.217Z,11.90
2023-02-24T02:34:18.904Z,11.90
2023-02-24T02:37:14.786Z,11.90
2023-02-24T02:39:59.284Z,12.00
2023-02-24T02:42:39.042Z,11.90
2023-02-24T02:45:24.457Z,11.90
2023-02-24T02:47:58.404Z,11.90
2023-02-24T02:50:33.011Z,11.90
2023-02-24T02:53:14.071Z,11.90
2023-02-24T02:55:53.466Z,11.80
2023-02-24T02:58:26.447Z,11.80
2023-02-24T03:01:05.051Z,11.80
2023-02-24T03:03:49.223Z,11.80
2023-02-24T03:06:24.533Z,11.90
2023-02-24T03:09:14.752Z,11.80
2023-02-24T03:12:07.868Z,11.80
2023-02-24T03:14:39.300Z,11.80
2023-02-24T03:17:17.351Z,11.80
2023-02-24T03:19:47.044Z,11.80
2023-02-24T03:22:40.967Z,11.80
2023-02-24T03:25:08.982Z,11.80
2023-02-24T03:27:46.976Z,11.70
2023-02-24T03:30:21.326Z,11.70
2023-02-24T03:33:07.313Z,11.70
2023-02-24T03:35:44.784Z,11.70
2023-02-24T03:38:14.093Z,11.70
2023-02-24T03:40:43.455Z,11.70
2023-02-24T03:43:23.002Z,11.70
2023-02-24T03:45:50.020Z,11.70
2023-02-24T03:48:17.416Z,11.70
2023-02-24T03:50:45.033Z,11.70
2023-02-24T03:53:33.190Z,11.70
2023-02-24T03:56:18.793Z,11.70
2023-02-24T03:58:59.588Z,11.70
2023-02-24T04:01:32.825Z,11.70
2023-02-24T04:04:10.864Z,11.70
2023-02-24T04:06:47.120Z,11.70
2023-02-24T04:09:21.756Z,11.70
2023-02-24T04:11:56.523Z,11.70
2023-02-24T04:14:30.724Z,11.70
2023-02-24T04:17:09.023Z,11.70
2023-02-24T04:19:40.527Z,11.70
2023-02-24T04:22:10.515Z,11.60
2023-02-24T04:24:39.538Z,11.60
2023-02-24T04:27:11.453Z,11.60
2023-02-24T04:29:47.305Z,11.60
2023-02-24T04:32:17.556Z,11.60
2023-02-24T04:34:45.581Z,11.60
2023-02-24T04:37:12.385Z,11.50
2023-02-24T04:39:39.267Z,11.60
2023-02-24T04:42:06.553Z,11.60
2023-02-24T04:44:33.365Z,11.50
2023-02-24T04:47:00.697Z,11.60
2023-02-24T04:49:27.696Z,11.60
2023-02-24T04:51:54.458Z,11.50
2023-02-24T04:54:21.402Z,11.50
2023-02-24T04:56:50.706Z,11.50
2023-02-24T04:59:21.741Z,11.50
2023-02-24T05:01:53.043Z,11.50
2023-02-24T05:04:20.131Z,11.50
2023-02-24T05:06:47.121Z,11.50
2023-02-24T05:09:18.566Z,11.50
2023-02-24T05:11:51.729Z,11.50
2023-02-24T05:14:21.195Z,11.50
2023-02-24T05:16:49.262Z,11.50
2023-02-24T05:19:37.552Z,11.50
2023-02-24T05:22:07.078Z,11.50
2023-02-24T05:24:34.713Z,11.50
2023-02-24T05:27:03.673Z,11.40
2023-02-24T05:29:34.494Z,11.40
2023-02-24T05:32:02.511Z,11.40
2023-02-24T05:34:30.975Z,11.40
2023-02-24T05:36:59.554Z,11.40
2023-02-24T05:39:26.583Z,11.40
2023-02-24T05:41:54.813Z,11.40
2023-02-24T05:44:23.350Z,11.40
2023-02-24T05:46:56.709Z,11.40
2023-02-24T05:49:31.300Z,11.40
2023-02-24T05:52:00.829Z,11.40
2023-02-24T05:54:30.740Z,11.40
2023-02-24T05:57:07.028Z,11.40
2023-02-24T05:59:34.418Z,11.40
2023-02-24T06:02:09.896Z,11.40
2023-02-24T06:04:45.896Z,11.40
2023-02-24T06:07:14.170Z,11.40
2023-02-24T06:09:45.007Z,11.30
2023-02-24T06:12:14.502Z,11.40
2023-02-24T06:14:42.239Z,11.30
2023-02-24T06:17:09.381Z,11.30
2023-02-24T06:19:36.356Z,11.40
2023-02-24T06:22:03.863Z,11.30
2023-02-24T06:24:33.089Z,11.30
2023-02-24T06:27:09.837Z,11.30
2023-02-24T06:29:37.696Z,11.30
2023-02-24T06:32:10.912Z,11.30
2023-02-24T06:34:38.873Z,11.40
2023-02-24T06:37:07.356Z,11.40
2023-02-24T06:39:37.162Z,11.40
2023-02-24T06:42:05.236Z,11.40
2023-02-24T06:44:33.164Z,11.30
2023-02-24T06:47:00.432Z,11.30
2023-02-24T06:49:27.814Z,11.30
2023-02-24T06:51:55.638Z,11.30
2023-02-24T06:54:23.298Z,11.30
2023-02-24T06:56:50.369Z,11.30
2023-02-24T06:59:21.862Z,11.30
2023-02-24T07:01:49.434Z,11.30
2023-02-24T07:04:17.994Z,11.30
2023-02-24T07:06:52.310Z,11.30
2023-02-24T07:09:23.013Z,11.30
2023-02-24T07:11:55.941Z,11.30
2023-02-24T07:14:29.248Z,11.30
2023-02-24T07:16:58.026Z,11.30
2023-02-24T07:19:29.130Z,11.30
2023-02-24T07:22:02.012Z,11.30
2023-02-24T07:24:36.325Z,11.30
2023-02-24T07:27:06.249Z,11.30
2023-02-24T07:29:34.548Z,11.30
2023-02-24T07:32:03.755Z,11.30
2023-02-24T07:34:31.500Z,11.30
2023-02-24T07:36:58.655Z,11.30
2023-02-24T07:39:25.725Z,11.30
2023-02-24T07:41:57.114Z,11.30
2023-02-24T07:44:24.406Z,11.30
2023-02-24T07:46:51.683Z,11.30
2023-02-24T07:49:26.062Z,11.30
2023-02-24T07:51:57.624Z,11.30
2023-02-24T07:54:27.320Z,11.30
2023-02-24T07:56:57.214Z,11.30
2023-02-24T07:59:27.328Z,11.30
2023-02-24T08:01:55.969Z,11.30
2023-02-24T08:04:30.524Z,11.30
2023-02-24T08:07:02.487Z,11.30
2023-02-24T08:09:44.657Z,11.30
2023-02-24T08:12:17.849Z,11.30
2023-02-24T08:14:50.843Z,11.30
2023-02-24T08:17:26.852Z,11.30
2023-02-24T08:20:15.513Z,11.30
2023-02-24T08:22:44.455Z,11.30
2023-02-24T08:25:18.482Z,11.30
2023-02-24T08:28:06.408Z,11.30
2023-02-24T08:30:38.988Z,11.30
2023-02-24T08:33:09.151Z,11.40
2023-02-24T08:35:38.352Z,11.40
2023-02-24T08:38:07.777Z,11.40
2023-02-24T08:40:39.710Z,11.40
2023-02-24T08:43:31.155Z,11.40
2023-02-24T08:46:03.699Z,11.40
2023-02-24T08:48:38.866Z,11.40
2023-02-24T08:51:15.821Z,11.50
2023-02-24T08:53:44.087Z,11.50
2023-02-24T08:56:14.140Z,11.50
2023-02-24T08:58:49.588Z,11.60
2023-02-24T09:01:24.331Z,11.60
2023-02-24T09:03:55.414Z,11.60
2023-02-24T09:06:44.197Z,11.60
2023-02-24T09:09:21.439Z,11.60
2023-02-24T09:11:59.874Z,11.60
2023-02-24T09:14:36.395Z,11.60
2023-02-24T09:17:06.562Z,11.70
2023-02-24T09:19:51.867Z,11.70
2023-02-24T09:22:40.778Z,11.70
2023-02-24T09:25:19.112Z,11.70
2023-02-24T09:28:09.653Z,11.70
2023-02-24T09:30:51.354Z,11.70
2023-02-24T09:33:29.914Z,11.70
2023-02-24T09:36:20.235Z,11.70
2023-02-24T09:38:59.648Z,11.70
2023-02-24T09:41:54.752Z,11.70
2023-02-24T09:44:44.667Z,11.70
2023-02-24T09:47:53.436Z,11.80
2023-02-24T09:50:46.872Z,11.80
2023-02-24T09:53:17.387Z,11.80
2023-02-24T09:56:30.751Z,11.80
2023-02-24T09:59:10.325Z,11.90
2023-02-24T10:01:54.687Z,11.90
2023-02-24T10:04:49.247Z,12.00
2023-02-24T10:07:23.210Z,12.00
2023-02-24T10:10:19.868Z,12.00
2023-02-24T10:12:53.095Z,12.10
2023-02-24T10:16:07.400Z,12.10
2023-02-24T10:19:15.255Z,12.20
2023-02-24T10:22:03.321Z,12.20
2023-02-24T10:25:01.444Z,12.20
2023-02-24T10:27:41.364Z,12.20
2023-02-24T10:30:42.615Z,12.20
2023-02-24T10:33:38.902Z,12.20
2023-02-24T10:36:09.367Z,12.20
2023-02-24T10:38:45.574Z,12.10
2023-02-24T10:41:16.192Z,12.10
2023-02-24T10:43:56.771Z,12.10
2023-02-24T10:46:42.117Z,12.10
2023-02-24T10:49:16.383Z,12.10
2023-02-24T10:51:51.144Z,12.10
2023-02-24T10:54:45.506Z,12.10
2023-02-24T10:57:38.233Z,12.10
2023-02-24T11:00:51.188Z,12.10
2023-02-24T11:03:35.891Z,12.10
2023-02-24T11:06:03.644Z,12.10
2023-02-24T11:08:52.465Z,12.00
2023-02-24T11:11:30.858Z,12.00
2023-02-24T11:14:19.048Z,12.00
2023-02-24T11:17:10.321Z,12.00
2023-02-24T11:19:49.442Z,12.00
2023-02-24T11:22:39.553Z,12.00
2023-02-24T11:25:36.687Z,12.00
2023-02-24T11:28:05.586Z,12.00
2023-02-24T11:30:42.122Z,12.00
2023-02-24T11:33:41.239Z,12.00
2023-02-24T11:36:22.780Z,12.00
2023-02-24T11:39:18.899Z,12.00
2023-02-24T11:41:53.713Z,12.00
2023-02-24T11:44:47.488Z,12.00
2023-02-24T11:47:18.222Z,12.00
2023-02-24T11:50:16.217Z,12.00
2023-02-24T11:52:46.950Z,12.00
2023-02-24T11:55:40.047Z,12.00
2023-02-24T11:58:20.544Z,12.00
2023-02-24T12:01:25.676Z,12.00
2023-02-24T12:04:15.000Z,12.00
2023-02-24T12:07:19.647Z,12.00
2023-02-24T12:10:16.154Z,12.00
2023-02-24T12:12:59.731Z,12.00
2023-02-24T12:15:50.424Z,12.00
2023-02-24T12:18:27.714Z,12.10
2023-02-24T12:21:05.913Z,12.10
2023-02-24T12:23:41.964Z,12.10
2023-02-24T12:26:25.929Z,12.20
2023-02-24T12:29:07.588Z,12.30
2023-02-24T12:31:54.617Z,12.30
2023-02-24T12:34:55.151Z,12.40
2023-02-24T12:37:30.770Z,12.40
2023-02-24T12:40:16.220Z,12.50
2023-02-24T12:42:45.713Z,12.50
2023-02-24T12:45:17.271Z,12.60
2023-02-24T12:47:50.037Z,12.70
2023-02-24T12:50:27.500Z,12.90
2023-02-24T12:53:20.524Z,13.10
2023-02-24T12:56:11.726Z,13.30
2023-02-24T12:58:41.822Z,13.40
2023-02-24T13:01:46.812Z,13.60
2023-02-24T13:04:25.635Z,13.60
2023-02-24T13:07:09.866Z,13.70
2023-02-24T13:09:42.556Z,13.70
2023-02-24T13:12:09.494Z,13.60
2023-02-24T13:14:39.020Z,13.60
2023-02-24T13:17:11.880Z,13.50
2023-02-24T13:19:43.471Z,13.40
2023-02-24T13:22:13.008Z,13.40
2023-02-24T13:24:56.523Z,13.30
2023-02-24T13:27:38.986Z,13.30
2023-02-24T13:30:11.549Z,13.30
2023-02-24T13:32:59.715Z,13.30
2023-02-24T13:35:26.582Z,13.20
2023-02-24T13:37:53.954Z,13.20
2023-02-24T13:40:23.795Z,13.20
2023-02-24T13:42:57.114Z,13.10
2023-02-24T13:45:29.261Z,13.10
2023-02-24T13:48:10.996Z,13.00
2023-02-24T13:50:55.768Z,13.00
2023-02-24T13:53:47.124Z,12.90
2023-02-24T13:56:40.454Z,12.90
2023-02-24T13:59:31.669Z,12.90
2023-02-24T14:01:59.801Z,12.80
2023-02-24T14:04:36.252Z,12.80
2023-02-24T14:07:09.100Z,12.80
2023-02-24T14:09:45.015Z,12.80
2023-02-24T14:12:19.618Z,12.80
2023-02-24T14:14:47.710Z,12.80
2023-02-24T14:17:28.846Z,12.80
2023-02-24T14:20:14.455Z,12.80
2023-02-24T14:22:50.501Z,12.70
2023-02-24T14:25:18.032Z,12.70
2023-02-24T14:27:48.343Z,12.70
2023-02-24T14:30:26.443Z,12.70
2023-02-24T14:32:54.087Z,12.70
2023-02-24T14:35:46.322Z,12.60
2023-02-24T14:38:38.445Z,12.60
2023-02-24T14:41:07.977Z,12.60
2023-02-24T14:43:41.956Z,12.50
2023-02-24T14:46:08.806Z,12.50
2023-02-24T14:48:36.393Z,12.50
2023-02-24T14:51:21.165Z,12.50
2023-02-24T14:53:53.976Z,12.50
2023-02-24T14:56:23.781Z,12.50
2023-02-24T14:58:59.406Z,12.50
2023-02-24T15:01:43.575Z,12.50
2023-02-24T15:04:29.106Z,12.40
2023-02-24T15:06:56.055Z,12.40
2023-02-24T15:09:27.185Z,12.40
2023-02-24T15:11:56.184Z,12.40
2023-02-24T15:14:28.243Z,12.40
2023-02-24T15:16:58.075Z,12.40
2023-02-24T15:19:32.090Z,12.40
2023-02-24T15:21:59.003Z,12.40
2023-02-24T15:24:34.264Z,12.40
2023-02-24T15:27:25.932Z,12.40
2023-02-24T15:30:35.900Z,12.40
2023-02-24T15:33:24.716Z,12.40
2023-02-24T15:35:54.659Z,12.40
2023-02-24T15:38:25.068Z,12.40
2023-02-24T15:41:00.780Z,12.40
2023-02-24T15:43:37.338Z,12.40
2023-02-24T15:46:31.032Z,12.30
2023-02-24T15:49:02.951Z,12.40
2023-02-24T15:51:39.848Z,12.40
2023-02-24T15:54:11.231Z,12.30
2023-02-24T15:56:38.163Z,12.30
2023-02-24T15:59:06.085Z,12.30
2023-02-24T16:01:33.627Z,12.30
2023-02-24T16:04:01.086Z,12.30
2023-02-24T16:06:28.870Z,12.30
2023-02-24T16:08:57.072Z,12.30
2023-02-24T16:11:28.863Z,12.20
2023-02-24T16:14:05.084Z,12.20
2023-02-24T16:16:33.367Z,12.20
2023-02-24T16:19:15.872Z,12.10
2023-02-24T16:21:43.321Z,12.20
2023-02-24T16:24:10.230Z,12.10
2023-02-24T16:26:39.691Z,12.20
2023-02-24T16:29:11.780Z,12.10
2023-02-24T16:31:39.831Z,12.20
2023-02-24T16:34:07.887Z,12.10
2023-02-24T16:36:35.638Z,12.10
2023-02-24T16:39:04.866Z,12.10
2023-02-24T16:41:31.725Z,12.20
2023-02-24T16:43:58.529Z,12.10
2023-02-24T16:46:29.540Z,12.10
2023-02-24T16:48:56.361Z,12.10
2023-02-24T16:51:23.280Z,12.10
2023-02-24T16:53:50.199Z,12.10
2023-02-24T16:56:17.036Z,12.10
2023-02-24T16:58:43.922Z,12.10
2023-02-24T17:01:17.910Z,12.10
2023-02-24T17:03:47.243Z,12.10
2023-02-24T17:06:14.365Z,12.10
2023-02-24T17:08:46.146Z,12.00
2023-02-24T17:11:15.581Z,12.00
2023-02-24T17:13:42.451Z,11.90
2023-02-24T17:16:09.290Z,11.90
2023-02-24T17:18:36.457Z,11.90
2023-02-24T17:21:04.413Z,11.90
2023-02-24T17:23:32.348Z,11.80
2023-02-24T17:26:01.800Z,11.80
2023-02-24T17:28:28.862Z,11.80
2023-02-24T17:30:55.879Z,11.80
2023-02-24T17:33:23.010Z,11.80
2023-02-24T17:35:49.852Z,11.80
2023-02-24T17:38:19.291Z,11.80
2023-02-24T17:40:47.000Z,11.70
2023-02-24T17:43:14.061Z,11.70
2023-02-24T17:45:44.401Z,11.70
2023-02-24T17:48:13.464Z,11.60
2023-02-24T17:50:47.378Z,11.70
2023-02-24T17:53:15.067Z,11.60
2023-02-24T17:55:55.841Z,11.60
2023-02-24T17:58:26.710Z,11.60
2023-02-24T18:00:53.602Z,11.60
2023-02-24T18:03:20.517Z,11.60
2023-02-24T18:05:47.344Z,11.60
2023-02-24T18:08:14.642Z,11.50
2023-02-24T18:10:41.398Z,11.50
2023-02-24T18:13:08.173Z,11.60
2023-02-24T18:15:34.995Z,11.60
2023-02-24T18:18:01.729Z,11.60
2023-02-24T18:20:29.714Z,11.50
2023-02-24T18:22:57.190Z,11.50
2023-02-24T18:25:23.887Z,11.60
2023-02-24T18:27:50.597Z,11.50
2023-02-24T18:30:18.621Z,11.50
2023-02-24T18:32:45.874Z,11.60
2023-02-24T18:35:14.385Z,11.50
2023-02-24T18:37:43.855Z,11.50
2023-02-24T18:40:11.254Z,11.50
2023-02-24T18:42:38.730Z,11.50
2023-02-24T18:45:06.654Z,11.40
2023-02-24T18:47:33.498Z,11.50
2023-02-24T18:50:00.508Z,11.50
2023-02-24T18:52:27.368Z,11.40
2023-02-24T18:54:55.353Z,11.50
2023-02-24T18:57:22.211Z,11.50
2023-02-24T18:59:52.223Z,11.50
2023-02-24T19:02:19.009Z,11.40
2023-02-24T19:04:45.986Z,11.40
2023-02-24T19:07:13.317Z,11.40
2023-02-24T19:09:41.728Z,11.40
2023-02-24T19:12:08.956Z,11.40
2023-02-24T19:14:37.189Z,11.30
2023-02-24T19:17:04.085Z,11.20
2023-02-24T19:19:30.962Z,11.20
2023-02-24T19:21:57.839Z,11.10
2023-02-24T19:24:24.657Z,11.10
2023-02-24T19:26:53.247Z,11.10
2023-02-24T19:29:28.007Z,11.10
2023-02-24T19:31:57.543Z,11.10
2023-02-24T19:34:24.596Z,11.00
2023-02-24T19:36:51.640Z,11.00
2023-02-24T19:39:18.906Z,11.00
2023-02-24T19:41:47.027Z,11.00
2023-02-24T19:44:15.295Z,11.00
2023-02-24T19:46:43.111Z,10.90
2023-02-24T19:49:10.013Z,10.90
2023-02-24T19:51:37.027Z,10.90
2023-02-24T19:54:06.229Z,10.90
2023-02-24T19:56:37.217Z,10.90
2023-02-24T19:59:06.736Z,10.80
2023-02-24T20:01:33.891Z,10.80
2023-02-24T20:04:03.065Z,10.80
2023-02-24T20:06:35.727Z,10.80
2023-02-24T20:09:16.662Z,10.80
2023-02-24T20:11:45.475Z,10.80
2023-02-24T20:14:19.160Z,11.10
2023-02-24T20:16:47.292Z,10.80
2023-02-24T20:19:15.171Z,10.80
2023-02-24T20:21:42.450Z,10.70
2023-02-24T20:24:13.864Z,10.70
2023-02-24T20:26:44.744Z,10.70
2023-02-24T20:29:12.154Z,10.70
2023-02-24T20:31:40.510Z,10.70
2023-02-24T20:34:09.308Z,10.80
2023-02-24T20:36:36.546Z,10.70
2023-02-24T20:39:06.680Z,10.70
2023-02-24T20:41:34.468Z,10.80
2023-02-24T20:44:01.457Z,10.80
2023-02-24T20:46:31.279Z,10.80
2023-02-24T20:49:00.910Z,10.80
2023-02-24T20:51:29.490Z,10.80
2023-02-24T20:53:58.488Z,10.80
2023-02-24T20:56:27.853Z,10.80
2023-02-24T20:59:02.561Z,10.80
2023-02-24T21:01:31.231Z,10.80
2023-02-24T21:03:58.225Z,10.80
2023-02-24T21:06:26.146Z,10.80
2023-02-24T21:08:53.354Z,10.70
2023-02-24T21:11:22.250Z,10.70
2023-02-24T21:13:50.712Z,10.60
2023-02-24T21:16:19.065Z,10.60
2023-02-24T21:18:47.820Z,10.60
2023-02-24T21:21:15.398Z,10.50
2023-02-24T21:23:45.455Z,10.50
2023-02-24T21:26:12.969Z,10.40
2023-02-24T21:28:40.671Z,10.30
2023-02-24T21:31:13.170Z,10.20
2023-02-24T21:33:41.075Z,10.20
2023-02-24T21:36:10.901Z,10.10
2023-02-24T21:38:38.101Z,10.10
2023-02-24T21:41:07.863Z,10.10
2023-02-24T21:43:35.262Z,10.00
2023-02-24T21:46:05.535Z,10.00
2023-02-24T21:48:34.609Z,9.90
2023-02-24T21:51:06.283Z,9.90
2023-02-24T21:53:35.640Z,9.90
2023-02-24T21:56:17.542Z,9.80
2023-02-24T21:58:47.144Z,9.80
2023-02-24T22:01:17.246Z,9.70
2023-02-24T22:03:44.288Z,9.70
2023-02-24T22:06:13.067Z,9.70
2023-02-24T22:08:43.375Z,9.70
2023-02-24T22:11:12.460Z,9.70
2023-02-24T22:13:40.581Z,9.60
2023-02-24T22:16:13.962Z,9.60
2023-02-24T22:18:40.948Z,9.60
2023-02-24T22:21:09.502Z,9.50
2023-02-24T22:23:36.276Z,9.50
2023-02-24T22:26:08.941Z,9.50
2023-02-24T22:28:38.370Z,9.50
2023-02-24T22:31:06.612Z,9.50
2023-02-24T22:33:35.657Z,9.50
2023-02-24T22:36:04.173Z,10.20
2023-02-24T22:38:32.661Z,9.30
2023-02-24T22:41:05.113Z,9.30
2023-02-24T22:43:32.049Z,9.20
2023-02-24T22:46:05.091Z,9.20
2023-02-24T22:48:33.990Z,9.20
2023-02-24T22:51:02.637Z,9.30
2023-02-24T22:53:30.882Z,9.20
2023-02-24T22:55:58.008Z,9.20
2023-02-24T22:58:25.595Z,9.20
2023-02-24T23:00:56.478Z,9.20
2023-02-24T23:03:26.047Z,9.20
2023-02-24T23:05:55.983Z,9.20
2023-02-24T23:08:23.734Z,9.20
2023-02-24T23:10:50.679Z,9.20
2023-02-24T23:13:18.038Z,9.20
2023-02-24T23:15:44.989Z,9.20
2023-02-24T23:18:11.971Z,9.20
2023-02-24T23:20:38.687Z,9.20
2023-02-24T23:23:05.501Z,9.10
2023-02-24T23:25:32.231Z,9.10
2023-02-24T23:27:59.353Z,9.10
2023-02-24T23:30:26.103Z,9.20
2023-02-24T23:32:53.009Z,9.20
2023-02-24T23:35:19.888Z,9.20
2023-02-24T23:37:46.580Z,9.20
2023-02-24T23:40:16.717Z,9.20
2023-02-24T23:42:44.069Z,9.30
2023-02-24T23:45:11.126Z,9.20
2023-02-24T23:47:38.046Z,9.20
2023-02-24T23:50:05.020Z,9.20
2023-02-24T23:52:31.742Z,9.10
2023-02-24T23:54:58.508Z,9.10
2023-02-24T23:57:27.302Z,9.10
2023-02-24T23:59:54.189Z,9.10
